Time;durP1;ratioP1;P1;durP2;ratioP2;P2;SDS_P1;SDS_P2;PMS_P1;PMS_P2;Temp;Humidity;BMP_temperature;BMP_pressure;BME280_temperature;BME280_humidity;BME280_pressure;Samples;Min_cycle;Max_cycle;Signal;HPM_P1;HPM_P2
2023/10/16 00:01:27;;;;;;;3.55;0.55;;;;;;;7.08;95.16;102288.16;7395650;19;19922;-69
2023/10/16 00:03:56;;;;;;;6.38;0.50;;;;;;;7.10;95.08;102286.22;7392986;19;19922;-69
2023/10/16 00:06:27;;;;;;;2.30;0.60;;;;;;;7.12;94.88;102281.59;7399281;19;19919;-69
2023/10/16 00:09:01;;;;;;;5.05;0.80;;;;;;;7.13;95.07;102280.63;7393950;19;19961;-69
2023/10/16 00:11:30;;;;;;;2.05;0.60;;;;;;;7.13;95.16;102272.59;7392901;19;20017;-69
2023/10/16 00:13:58;;;;;;;3.40;1.65;;;;;;;7.13;94.87;102274.41;7393418;19;19950;-69
2023/10/16 00:16:30;;;;;;;3.75;1.05;;;;;;;7.12;94.95;102278.91;7394731;19;19928;-68
2023/10/16 00:18:59;;;;;;;3.22;0.75;;;;;;;7.11;95.15;102279.91;7396972;19;19961;-67
2023/10/16 00:21:31;;;;;;;1.95;0.50;;;;;;;7.10;94.68;102282.69;7393739;19;19923;-68
2023/10/16 00:23:59;;;;;;;1.30;0.45;;;;;;;7.09;94.95;102281.00;7394331;19;19937;-68
2023/10/16 00:26:30;;;;;;;1.15;0.55;;;;;;;7.06;95.23;102284.78;7395242;19;19933;-68
2023/10/16 00:29:16;;;;;;;3.63;0.35;;;;;;;7.05;94.88;102284.88;7395520;19;19999;-68
2023/10/16 00:31:46;;;;;;;3.97;0.63;;;;;;;7.00;95.21;102282.56;7393472;19;19923;-68
2023/10/16 00:34:19;;;;;;;1.63;0.70;;;;;;;7.00;95.10;102281.69;7388998;19;19934;-67
2023/10/16 00:36:53;;;;;;;2.97;0.57;;;;;;;7.01;95.55;102294.13;7390927;19;20322;-68
2023/10/16 00:39:22;;;;;;;2.25;0.40;;;;;;;6.99;95.18;102296.91;7392927;19;19926;-68
2023/10/16 00:41:51;;;;;;;4.03;0.40;;;;;;;6.98;95.36;102286.34;7391727;19;19918;-68
2023/10/16 00:44:22;;;;;;;3.72;0.75;;;;;;;6.99;95.86;102290.72;7390691;19;19965;-68
2023/10/16 00:46:53;;;;;;;1.02;0.30;;;;;;;6.98;95.73;102289.88;7396680;19;19926;-67
2023/10/16 00:49:23;;;;;;;1.30;0.30;;;;;;;6.97;95.71;102282.81;7395570;19;19938;-68
2023/10/16 00:51:55;;;;;;;3.00;0.50;;;;;;;6.97;96.42;102276.59;7395074;19;19941;-68
2023/10/16 00:54:29;;;;;;;1.08;0.28;;;;;;;6.96;96.63;102275.72;7393351;19;20345;-68
2023/10/16 00:56:59;;;;;;;1.58;0.43;;;;;;;6.96;96.61;102262.34;7393602;19;19927;-68
2023/10/16 00:59:28;;;;;;;1.42;0.38;;;;;;;6.98;96.83;102268.44;7393946;19;19951;-68
2023/10/16 01:02:07;;;;;;;1.67;0.60;;;;;;;7.00;96.53;102258.44;7392895;19;19918;-68
2023/10/16 01:04:36;;;;;;;2.65;0.40;;;;;;;7.02;96.46;102267.22;7391420;19;19933;-68
2023/10/16 01:07:08;;;;;;;2.80;0.60;;;;;;;7.01;96.58;102270.88;7394603;19;19926;-67
2023/10/16 01:09:40;;;;;;;2.38;0.47;;;;;;;7.02;96.70;102266.38;7392543;19;19934;-68
2023/10/16 01:12:11;;;;;;;1.52;0.65;;;;;;;7.03;96.64;102263.56;7393885;19;20327;-68
2023/10/16 01:14:41;;;;;;;4.07;0.50;;;;;;;7.02;97.00;102269.06;7393633;19;19923;-68
2023/10/16 01:17:12;;;;;;;1.60;0.70;;;;;;;7.02;97.26;102263.69;7393618;19;19922;-68
2023/10/16 01:19:44;;;;;;;2.15;0.52;;;;;;;7.02;97.01;102264.56;7391311;19;19941;-68
2023/10/16 01:22:16;;;;;;;3.72;0.47;;;;;;;7.01;98.05;102262.84;7395530;19;20000;-67
2023/10/16 01:24:48;;;;;;;1.90;0.80;;;;;;;7.01;97.64;102256.63;7395772;19;19934;-68
2023/10/16 01:27:29;;;;;;;4.28;0.68;;;;;;;7.03;97.89;102260.88;7394654;19;20007;-68
2023/10/16 01:29:59;;;;;;;2.45;1.15;;;;;;;7.04;98.15;102254.56;7392934;19;20300;-68
2023/10/16 01:32:31;;;;;;;4.60;0.77;;;;;;;7.06;97.97;102260.66;7394189;19;19919;-68
2023/10/16 01:34:59;;;;;;;1.70;0.50;;;;;;;7.08;97.96;102258.69;7391112;19;20018;-68
2023/10/16 01:37:29;;;;;;;3.10;0.73;;;;;;;7.10;98.23;102248.72;7394498;19;19958;-68
2023/10/16 01:40:14;;;;;;;3.47;0.63;;;;;;;7.11;98.51;102250.44;7392769;19;19927;-68
2023/10/16 01:42:43;;;;;;;2.90;0.40;;;;;;;7.14;98.04;102255.53;7393971;19;20353;-68
2023/10/16 01:45:12;;;;;;;1.17;0.40;;;;;;;7.16;98.31;102255.44;7394776;19;19930;-68
2023/10/16 01:47:41;;;;;;;1.98;0.73;;;;;;;7.18;98.38;102251.66;7391992;19;19937;-67
2023/10/16 01:50:17;;;;;;;1.98;0.98;;;;;;;7.21;98.04;102256.75;7394228;19;19926;-68
2023/10/16 01:52:45;;;;;;;2.45;0.60;;;;;;;7.24;98.25;102264.56;7389447;19;19927;-68
2023/10/16 01:55:19;;;;;;;3.72;0.60;;;;;;;7.26;98.40;102267.97;7396650;19;19918;-68
2023/10/16 01:57:48;;;;;;;2.38;0.40;;;;;;;7.29;97.92;102275.75;7394229;19;20727;-69
2023/10/16 02:00:24;;;;;;;2.67;0.47;;;;;;;7.31;98.18;102275.66;7395901;19;19953;-69
2023/10/16 02:02:53;;;;;;;2.00;0.30;;;;;;;7.33;98.19;102276.41;7392470;19;20248;-69
2023/10/16 02:05:22;;;;;;;2.70;0.47;;;;;;;7.34;98.25;102266.50;7392817;19;19926;-69
2023/10/16 02:07:55;;;;;;;1.70;0.30;;;;;;;7.32;99.08;102266.63;7395155;19;20460;-69
2023/10/16 02:10:27;;;;;;;2.05;0.35;;;;;;;7.32;99.02;102261.28;7387130;19;19914;-69
2023/10/16 02:12:56;;;;;;;2.33;0.40;;;;;;;7.29;99.40;102250.81;7389206;19;19949;-69
2023/10/16 02:15:25;;;;;;;2.67;0.50;;;;;;;7.26;98.99;102251.03;7394344;19;20266;-69
2023/10/16 02:17:53;;;;;;;1.77;0.93;;;;;;;7.24;99.40;102248.50;7395139;19;19922;-69
2023/10/16 02:20:26;;;;;;;1.83;0.38;;;;;;;7.22;98.90;102253.09;7391463;19;20337;-69
2023/10/16 02:22:55;;;;;;;3.22;0.40;;;;;;;7.20;98.91;102248.84;7392045;19;19923;-69
2023/10/16 02:25:23;;;;;;;3.53;0.47;;;;;;;7.17;98.96;102241.91;7392181;19;20380;-70
2023/10/16 02:27:54;;;;;;;2.38;0.45;;;;;;;7.13;98.92;102251.16;7394662;19;19938;-69
2023/10/16 02:30:35;;;;;;;1.95;0.95;;;;;;;7.09;98.94;102249.69;7393131;19;19944;-69
2023/10/16 02:33:14;;;;;;;3.95;0.77;;;;;;;7.08;99.36;102247.13;7392196;19;19923;-69
2023/10/16 02:35:47;;;;;;;1.85;0.30;;;;;;;7.08;99.07;102247.97;7390447;19;20273;-69
2023/10/16 02:38:23;;;;;;;1.40;0.50;;;;;;;7.08;99.38;102247.13;7390847;19;19934;-69
2023/10/16 02:40:53;;;;;;;0.68;0.30;;;;;;;7.07;99.42;102254.34;7392643;19;19926;-69
2023/10/16 02:43:25;;;;;;;3.33;0.60;;;;;;;7.07;99.44;102257.00;7389539;19;20002;-69
2023/10/16 02:45:56;;;;;;;;;;;;;;;6.97;100.00;102256.00;7391956;19;19918;-69
2023/10/16 02:48:25;;;;;;;2.17;0.40;;;;;;;7.01;100.00;102253.94;7393257;19;19948;-69
2023/10/16 02:50:56;;;;;;;2.75;0.60;;;;;;;7.01;99.91;102251.25;7391237;19;19931;-69
2023/10/16 02:53:27;;;;;;;2.67;0.98;;;;;;;7.00;99.98;102244.19;7391586;19;19926;-70
2023/10/16 02:55:57;;;;;;;0.60;0.40;;;;;;;6.98;99.91;102241.66;7392583;19;20501;-69
2023/10/16 02:58:29;;;;;;;2.38;0.70;;;;;;;6.95;100.00;102246.38;7392936;19;20340;-69
2023/10/16 03:00:59;;;;;;;1.67;0.52;;;;;;;6.91;100.00;102245.75;7389426;19;19930;-69
2023/10/16 03:03:29;;;;;;;4.57;0.50;;;;;;;6.88;100.00;102246.00;7389844;19;19918;-69
2023/10/16 03:06:00;;;;;;;2.65;0.45;;;;;;;6.87;99.96;102249.66;7391836;19;20401;-69
2023/10/16 03:08:32;;;;;;;3.58;0.40;;;;;;;6.82;100.00;102250.00;7391198;19;19939;-69
2023/10/16 03:11:05;;;;;;;2.15;0.50;;;;;;;6.81;100.00;102250.16;7391590;19;19937;-69
2023/10/16 03:13:37;;;;;;;2.67;0.82;;;;;;;6.79;100.00;102252.09;7391035;19;19929;-69
2023/10/16 03:16:11;;;;;;;3.40;0.70;;;;;;;6.77;100.00;102254.88;7388973;19;19918;-69
2023/10/16 03:18:43;;;;;;;1.88;0.45;;;;;;;6.76;100.00;102247.84;7390607;19;20620;-69
2023/10/16 03:21:26;;;;;;;;;;;;;;;6.68;100.00;102249.41;7394710;19;19961;-69
2023/10/16 03:23:58;;;;;;;3.97;0.82;;;;;;;6.71;100.00;102254.50;7392104;19;19937;-69
2023/10/16 03:26:28;;;;;;;2.45;0.50;;;;;;;6.70;100.00;102252.78;7391771;19;19947;-70
2023/10/16 03:29:04;;;;;;;5.57;0.57;;;;;;;6.69;100.00;102249.25;7393380;19;20289;-69
2023/10/16 03:31:36;;;;;;;1.08;0.43;;;;;;;6.69;100.00;102261.78;7390831;19;20312;-69
2023/10/16 03:34:05;;;;;;;0.90;0.40;;;;;;;6.68;100.00;102266.31;7387165;19;19923;-69
2023/10/16 03:36:34;;;;;;;1.77;0.52;;;;;;;6.67;100.00;102266.44;7390014;19;19932;-70
2023/10/16 03:39:03;;;;;;;2.25;0.43;;;;;;;6.68;100.00;102265.47;7389768;19;19922;-70
2023/10/16 03:41:32;;;;;;;3.42;0.50;;;;;;;6.70;100.00;102276.88;7389710;19;19953;-69
2023/10/16 03:44:14;;;;;;;1.98;0.47;;;;;;;6.71;100.00;102270.56;7390504;19;19922;-70
2023/10/16 03:46:44;;;;;;;1.55;0.40;;;;;;;6.73;100.00;102263.28;7385374;19;19924;-71
2023/10/16 03:49:14;;;;;;;3.13;0.50;;;;;;;6.76;100.00;102263.91;7390401;19;19981;-69
2023/10/16 03:51:44;;;;;;;2.33;0.50;;;;;;;6.81;100.00;102271.59;7390189;19;19930;-70
2023/10/16 03:54:14;;;;;;;1.90;0.43;;;;;;;6.82;100.00;102279.47;7391439;19;19934;-69
2023/10/16 03:56:44;;;;;;;1.25;0.45;;;;;;;6.84;100.00;102274.00;7392678;19;19929;-69
2023/10/16 03:59:15;;;;;;;3.58;0.40;;;;;;;6.86;100.00;102271.22;7390556;19;19914;-70
2023/10/16 04:01:44;;;;;;;3.90;0.47;;;;;;;6.85;100.00;102262.34;7387295;19;19935;-69
2023/10/16 04:04:15;;;;;;;1.88;0.55;;;;;;;6.85;100.00;102259.66;7389927;19;19921;-69
2023/10/16 04:06:44;;;;;;;2.13;0.32;;;;;;;6.85;100.00;102256.97;7388473;19;20398;-69
2023/10/16 04:09:13;;;;;;;4.30;0.60;;;;;;;6.83;100.00;102259.75;7388759;19;19918;-69
2023/10/16 04:11:48;;;;;;;2.65;0.30;;;;;;;6.82;100.00;102257.19;7389367;19;20724;-69
2023/10/16 04:14:19;;;;;;;2.72;0.35;;;;;;;6.81;100.00;102260.88;7395244;19;19943;-69
2023/10/16 04:16:54;;;;;;;2.88;0.73;;;;;;;6.80;100.00;102256.47;7394726;19;19927;-69
2023/10/16 04:19:36;;;;;;;0.47;0.35;;;;;;;6.80;100.00;102251.13;7399293;19;19922;-69
2023/10/16 04:22:09;;;;;;;1.48;0.63;;;;;;;6.77;100.00;102244.16;7397442;19;19934;-69
2023/10/16 04:24:44;;;;;;;0.95;0.35;;;;;;;6.74;100.00;102248.91;7394502;19;19978;-70
2023/10/16 04:33:13;;;;;;;2.17;0.40;;;;;;;6.72;100.00;102256.22;7395283;19;19982;-69
2023/10/16 04:36:49;;;;;;;0.57;0.50;;;;;;;6.71;100.00;102243.78;7392456;19;20023;-69
2023/10/16 04:47:01;;;;;;;1.63;0.50;;;;;;;6.70;100.00;102240.25;7390998;19;19923;-69
2023/10/16 04:49:28;;;;;;;0.32;0.32;;;;;;;6.69;100.00;102241.22;7396216;19;20333;-69
2023/10/16 04:52:01;;;;;;;1.25;0.22;;;;;;;6.68;100.00;102231.50;7392999;19;19938;-69
2023/10/16 04:54:38;;;;;;;1.08;0.47;;;;;;;6.68;100.00;102225.28;7395914;19;19918;-69
2023/10/16 05:00:12;;;;;;;2.10;0.52;;;;;;;6.68;100.00;102234.19;7395513;19;19914;-69
2023/10/16 05:02:51;;;;;;;1.35;0.68;;;;;;;6.68;100.00;102236.00;7395217;19;19921;-69
2023/10/16 05:05:46;;;;;;;3.72;0.47;;;;;;;6.69;100.00;102221.63;7394192;19;19915;-69
2023/10/16 05:11:23;;;;;;;0.70;0.30;;;;;;;6.72;100.00;102234.78;7393344;19;19932;-69
2023/10/16 05:13:55;;;;;;;3.83;0.50;;;;;;;6.73;100.00;102226.63;7393779;19;19933;-69
2023/10/16 05:16:38;;;;;;;2.15;0.82;;;;;;;6.76;100.00;102230.91;7395055;19;19922;-69
2023/10/16 05:19:17;;;;;;;3.20;0.60;;;;;;;6.79;100.00;102225.31;7397294;19;19918;-69
2023/10/16 05:22:09;;;;;;;4.20;1.08;;;;;;;6.81;100.00;102226.91;7395437;19;20282;-69
2023/10/16 06:15:47;;;;;;;1.33;0.50;;;;;;;7.67;100.00;102250.41;7393964;19;19923;-68
2023/10/16 06:18:15;;;;;;;1.38;0.50;;;;;;;7.65;100.00;102247.84;7395335;19;19919;-68
2023/10/16 06:20:44;;;;;;;3.13;0.50;;;;;;;7.65;100.00;102244.28;7395813;19;19923;-69
2023/10/16 06:23:19;;;;;;;3.35;0.55;;;;;;;7.65;100.00;102246.97;7388710;19;19923;-70
2023/10/16 06:25:48;;;;;;;3.03;0.60;;;;;;;7.64;100.00;102245.25;7391675;19;19923;-70
2023/10/16 06:28:17;;;;;;;4.38;0.95;;;;;;;7.65;100.00;102253.19;7390824;19;20315;-70
2023/10/16 06:30:46;;;;;;;5.13;0.60;;;;;;;7.67;100.00;102253.09;7394747;19;19926;-70
2023/10/16 06:33:14;;;;;;;3.38;0.75;;;;;;;7.69;100.00;102251.97;7397025;19;19935;-70
2023/10/16 06:35:43;;;;;;;2.38;0.68;;;;;;;7.71;100.00;102250.03;7392633;19;19930;-70
2023/10/16 06:38:14;;;;;;;2.63;0.70;;;;;;;7.71;100.00;102260.75;7394477;19;19911;-71
2023/10/16 06:40:45;;;;;;;2.78;0.98;;;;;;;7.72;100.00;102264.28;7394516;19;19939;-70
2023/10/16 06:43:14;;;;;;;4.00;0.80;;;;;;;7.68;100.00;102261.00;7392798;19;19926;-71
2023/10/16 06:45:54;;;;;;;2.10;0.60;;;;;;;7.68;100.00;102266.34;7393440;19;19922;-70
2023/10/16 06:48:27;;;;;;;2.05;0.60;;;;;;;7.70;100.00;102266.22;7392633;19;19922;-70
2023/10/16 06:51:03;;;;;;;4.50;0.70;;;;;;;7.72;100.00;102270.47;7393698;19;19928;-70
2023/10/16 06:53:33;;;;;;;2.72;0.80;;;;;;;7.74;100.00;102268.53;7395324;19;19929;-70
2023/10/16 06:56:04;;;;;;;2.60;0.70;;;;;;;7.78;100.00;102273.66;7392424;19;19929;-70
2023/10/16 06:58:34;;;;;;;1.50;0.77;;;;;;;7.78;100.00;102279.88;7392631;19;19933;-70
2023/10/16 07:01:03;;;;;;;1.50;0.50;;;;;;;7.79;100.00;102278.91;7393077;19;19935;-70
2023/10/16 07:03:33;;;;;;;2.08;0.60;;;;;;;7.81;100.00;102284.97;7391931;19;20711;-70
2023/10/16 07:06:05;;;;;;;3.60;0.80;;;;;;;7.81;100.00;102282.31;7394366;19;20555;-70
2023/10/16 07:08:35;;;;;;;3.58;0.88;;;;;;;7.84;100.00;102290.13;7393474;19;19923;-70
2023/10/16 07:11:11;;;;;;;1.52;0.80;;;;;;;7.84;100.00;102284.75;7393892;19;19933;-70
2023/10/16 07:13:40;;;;;;;3.08;0.75;;;;;;;7.85;100.00;102275.75;7392890;19;19918;-70
2023/10/16 07:16:09;;;;;;;3.63;0.90;;;;;;;7.87;100.00;102279.13;7393679;19;19911;-70
2023/10/16 07:18:42;;;;;;;1.65;0.80;;;;;;;7.89;100.00;102279.88;7394017;19;19923;-70
2023/10/16 07:21:20;;;;;;;2.15;0.73;;;;;;;7.91;100.00;102277.03;7395189;19;19971;-70
2023/10/16 07:23:53;;;;;;;3.22;0.90;;;;;;;7.93;100.00;102286.69;7388939;19;20483;-70
2023/10/16 07:26:24;;;;;;;4.43;1.15;;;;;;;7.95;100.00;102292.78;7391250;19;19925;-70
2023/10/16 07:28:53;;;;;;;4.90;1.10;;;;;;;7.96;100.00;102294.47;7393756;19;19959;-70
2023/10/16 07:31:22;;;;;;;2.33;0.88;;;;;;;7.99;100.00;102296.06;7390942;19;19919;-70
2023/10/16 07:33:59;;;;;;;1.85;0.85;;;;;;;8.01;100.00;102294.09;7393035;19;19919;-70
2023/10/16 07:36:28;;;;;;;4.32;1.10;;;;;;;8.02;100.00;102293.13;7394638;19;19926;-70
2023/10/16 07:38:57;;;;;;;3.15;0.90;;;;;;;8.07;100.00;102302.50;7387871;19;19922;-70
2023/10/16 07:41:28;;;;;;;3.50;0.95;;;;;;;8.11;100.00;102300.44;7387923;19;19926;-70
2023/10/16 07:44:04;;;;;;;3.15;0.95;;;;;;;8.15;100.00;102293.84;7393151;19;19926;-70
2023/10/16 07:46:34;;;;;;;4.00;1.27;;;;;;;8.19;100.00;102300.66;7392040;19;19915;-70
2023/10/16 07:49:09;;;;;;;2.70;0.80;;;;;;;8.24;100.00;102294.91;7396651;19;19918;-70
2023/10/16 07:51:45;;;;;;;3.50;0.70;;;;;;;8.28;100.00;102290.97;7397267;19;19922;-70
2023/10/16 07:54:14;;;;;;;1.98;0.82;;;;;;;8.32;100.00;102293.31;7395422;19;20043;-70
2023/10/16 07:56:45;;;;;;;2.40;0.80;;;;;;;8.36;100.00;102300.13;7398460;19;19947;-69
2023/10/16 07:59:18;;;;;;;2.47;0.85;;;;;;;8.40;100.00;102298.91;7397026;19;19918;-69
2023/10/16 08:01:57;;;;;;;3.35;0.70;;;;;;;8.42;100.00;102291.56;7398090;19;20315;-70
2023/10/16 08:04:37;;;;;;;1.90;1.20;;;;;;;8.44;100.00;102297.66;7398865;19;19914;-69
2023/10/16 08:07:16;;;;;;;4.88;1.30;;;;;;;8.44;100.00;102304.88;7396257;19;19922;-70
2023/10/16 08:10:28;;;;;;;4.03;0.73;;;;;;;8.46;100.00;102313.63;7397875;19;19922;-70
2023/10/16 08:12:49;;;;;;;2.60;0.55;;;;;;;8.51;100.00;102311.41;7397870;19;20005;-69
2023/10/16 08:15:21;;;;;;;;;;;;;;;8.51;100.00;102312.28;7400012;19;19922;-69
2023/10/16 08:17:51;;;;;;;2.22;0.70;;;;;;;8.64;100.00;102307.56;7398624;19;19927;-70
2023/10/16 08:20:20;;;;;;;4.40;2.00;;;;;;;8.75;99.55;102317.44;7396720;19;20055;-70
2023/10/16 08:22:49;;;;;;;2.97;0.60;;;;;;;8.84;99.49;102308.59;7397904;19;20456;-69
2023/10/16 08:28:24;;;;;;;1.48;0.85;;;;;;;9.18;98.39;102319.13;7398166;19;19919;-69
2023/10/16 08:30:54;;;;;;;3.30;0.90;;;;;;;9.36;97.88;102326.44;7396813;19;19930;-69
2023/10/16 08:33:30;;;;;;;5.78;0.82;;;;;;;9.42;96.80;102335.81;7395870;19;20313;-70
2023/10/16 08:36:01;;;;;;;2.97;0.90;;;;;;;9.41;95.94;102351.09;7395680;19;19930;-69
2023/10/16 08:38:32;;;;;;;1.80;0.80;;;;;;;9.37;96.59;102343.41;7395926;19;20257;-69
2023/10/16 08:41:07;;;;;;;;;;;;;;;9.24;96.18;102348.16;7397560;19;19923;-70
2023/10/16 08:43:53;;;;;;;2.97;0.85;;;;;;;9.26;97.35;102351.56;7396618;19;20301;-70
2023/10/16 08:46:30;;;;;;;3.83;1.13;;;;;;;9.28;97.57;102342.38;7394792;19;19929;-69
2023/10/16 08:49:03;;;;;;;6.28;0.75;;;;;;;9.32;97.46;102332.25;7392587;19;19915;-70
2023/10/16 08:51:33;;;;;;;2.90;0.75;;;;;;;9.35;97.87;102335.50;7398001;19;20374;-69
2023/10/16 08:54:04;;;;;;;4.30;0.82;;;;;;;9.40;97.03;102329.72;7396499;19;19937;-69
2023/10/16 08:56:30;;;;;;;5.22;0.88;;;;;;;9.45;96.77;102331.00;7396661;19;20603;-69
2023/10/16 08:59:04;;;;;;;1.40;0.68;;;;;;;9.52;96.47;102339.41;7393325;19;19994;-69
2023/10/16 09:01:33;;;;;;;2.10;0.73;;;;;;;9.62;96.46;102326.00;7395065;19;20354;-69
2023/10/16 09:04:06;;;;;;;4.60;0.70;;;;;;;9.71;96.39;102334.09;7396448;19;20302;-69
2023/10/16 09:06:37;;;;;;;3.55;0.75;;;;;;;9.80;96.47;102330.59;7397642;19;19927;-69
2023/10/16 09:09:12;;;;;;;5.75;1.00;;;;;;;9.90;96.30;102323.41;7390403;19;19914;-69
2023/10/16 09:11:43;;;;;;;2.83;0.70;;;;;;;9.97;95.04;102329.94;7395976;19;19922;-69
2023/10/16 09:14:17;;;;;;;3.17;0.65;;;;;;;10.03;93.47;102321.31;7395877;19;19919;-69
2023/10/16 09:16:51;;;;;;;4.45;1.10;;;;;;;10.10;94.04;102323.44;7394724;19;19922;-69
2023/10/16 09:19:26;;;;;;;5.50;1.00;;;;;;;10.19;93.83;102326.19;7395685;19;19927;-70
2023/10/16 09:21:55;;;;;;;1.45;0.65;;;;;;;10.30;92.11;102322.53;7397210;19;19974;-69
2023/10/16 09:24:24;;;;;;;3.22;0.50;;;;;;;10.33;92.79;102320.41;7396789;19;19926;-69
2023/10/16 09:26:54;;;;;;;2.13;0.50;;;;;;;10.40;91.05;102328.78;7397157;19;19939;-69
2023/10/16 09:29:35;;;;;;;1.30;0.45;;;;;;;10.48;89.12;102327.06;7394995;19;19945;-69
2023/10/16 09:32:03;;;;;;;4.30;0.90;;;;;;;10.58;89.91;102324.41;7396727;19;20030;-69
2023/10/16 09:34:33;;;;;;;3.30;0.63;;;;;;;10.76;89.53;102322.69;7390860;19;19925;-69
2023/10/16 09:37:20;;;;;;;2.65;1.00;;;;;;;10.95;87.90;102327.22;7396168;19;20346;-69
2023/10/16 09:39:49;;;;;;;3.17;0.75;;;;;;;11.05;86.88;102328.03;7394684;19;20262;-69
2023/10/16 09:42:24;;;;;;;7.13;0.73;;;;;;;11.04;85.06;102339.00;7397271;19;19923;-69
2023/10/16 09:44:59;;;;;;;1.20;0.30;;;;;;;10.98;84.10;102334.16;7397245;19;19931;-69
2023/10/16 09:47:26;;;;;;;4.53;0.57;;;;;;;10.94;85.81;102333.59;7395945;19;19918;-69
2023/10/16 09:49:58;;;;;;;2.53;0.88;;;;;;;10.95;86.79;102337.16;7393499;19;19929;-69
2023/10/16 09:52:29;;;;;;;2.45;0.40;;;;;;;10.90;84.65;102345.69;7390885;19;19923;-69
2023/10/16 09:54:59;;;;;;;3.22;0.30;;;;;;;10.88;85.90;102340.41;7389210;19;20284;-69
2023/10/16 09:57:31;;;;;;;3.30;0.38;;;;;;;10.87;84.65;102340.59;7393909;19;19926;-69
2023/10/16 10:00:23;;;;;;;3.03;0.40;;;;;;;10.88;85.82;102343.13;7390945;19;20034;-69
2023/10/16 10:02:53;;;;;;;2.50;0.60;;;;;;;10.89;85.83;102342.13;7387942;19;19979;-70
2023/10/16 10:05:31;;;;;;;1.58;0.50;;;;;;;10.91;86.09;102339.28;7391772;19;19923;-68
2023/10/16 10:08:02;;;;;;;1.48;0.82;;;;;;;10.92;85.14;102347.22;7395722;19;20256;-69
2023/10/16 10:11:04;;;;;;;0.98;0.45;;;;;;;10.95;84.77;102339.84;7391483;19;19927;-68
2023/10/16 10:13:34;;;;;;;2.78;0.65;;;;;;;11.03;84.57;102342.69;7393285;19;19922;-68
2023/10/16 10:16:12;;;;;;;4.95;0.70;;;;;;;11.09;82.59;102342.94;7392605;19;19922;-68
2023/10/16 10:18:49;;;;;;;3.75;0.57;;;;;;;11.13;82.18;102338.13;7380256;19;20348;-68
2023/10/16 10:21:28;;;;;;;5.90;0.65;;;;;;;11.23;84.46;102344.34;7387330;19;19946;-68
2023/10/16 10:24:00;;;;;;;3.42;0.70;;;;;;;11.29;82.53;102343.78;7395106;19;19923;-68
2023/10/16 10:26:30;;;;;;;0.77;0.40;;;;;;;11.38;83.03;102343.75;7395292;19;19922;-68
2023/10/16 10:29:09;;;;;;;1.00;0.40;;;;;;;11.49;81.89;102342.72;7390803;19;20381;-68
2023/10/16 10:31:43;;;;;;;1.98;0.63;;;;;;;11.58;81.37;102346.38;7393836;19;19922;-68
2023/10/16 10:34:27;;;;;;;1.85;0.50;;;;;;;11.66;80.53;102347.34;7394119;19;19922;-68
2023/10/16 10:36:58;;;;;;;3.47;0.80;;;;;;;11.76;81.14;102350.03;7393004;19;20361;-69
2023/10/16 10:39:43;;;;;;;0.55;0.20;;;;;;;11.96;78.04;102348.06;7392607;19;19927;-67
2023/10/16 10:47:43;;;;;;;2.38;0.70;;;;;;;12.37;75.89;102339.47;7388049;19;19944;-67
2023/10/16 10:50:15;;;;;;;5.32;0.80;;;;;;;12.19;78.05;102342.13;7386087;19;19926;-68
2023/10/16 10:52:44;;;;;;;4.07;0.80;;;;;;;12.04;79.28;102343.63;7388158;19;19921;-67
2023/10/16 10:55:22;;;;;;;4.28;0.80;;;;;;;11.88;81.32;102351.53;7390280;19;19919;-67
2023/10/16 10:57:55;;;;;;;;;;;;;;;11.55;83.66;102354.78;7394872;19;20299;-67
2023/10/16 11:00:43;;;;;;;3.70;0.60;;;;;;;11.44;84.62;102350.38;7394201;19;19918;-68
2023/10/16 11:03:31;;;;;;;2.63;0.40;;;;;;;11.29;85.86;102341.94;7391870;19;20332;-68
2023/10/16 11:06:00;;;;;;;2.58;0.55;;;;;;;11.22;86.57;102337.22;7389212;19;20791;-67
2023/10/16 11:08:35;;;;;;;2.00;0.57;;;;;;;11.19;86.58;102340.22;7387814;19;19915;-68
2023/10/16 11:11:05;;;;;;;6.82;0.63;;;;;;;11.16;86.14;102344.09;7388263;19;19927;-68
2023/10/16 11:13:37;;;;;;;5.65;1.30;;;;;;;11.16;87.07;102333.28;7391557;19;19929;-67
2023/10/16 11:16:07;;;;;;;4.40;0.60;;;;;;;11.21;86.99;102330.16;7389496;19;19929;-68
2023/10/16 11:18:39;;;;;;;3.90;0.73;;;;;;;11.27;86.90;102332.25;7386620;19;19939;-68
2023/10/16 11:21:08;;;;;;;2.60;0.50;;;;;;;11.35;87.01;102333.22;7392310;19;20272;-68
2023/10/16 11:23:42;;;;;;;3.85;0.65;;;;;;;11.45;87.08;102326.94;7394433;19;19922;-68
2023/10/16 11:26:16;;;;;;;2.40;0.68;;;;;;;11.54;85.69;102316.13;7394479;19;21114;-69
2023/10/16 11:28:48;;;;;;;3.17;0.60;;;;;;;11.64;85.95;102319.66;7392501;19;20472;-69
2023/10/16 11:31:18;;;;;;;2.17;0.70;;;;;;;11.74;84.83;102323.16;7391751;19;19926;-69
2023/10/16 11:34:05;;;;;;;2.95;0.60;;;;;;;11.83;86.40;102324.97;7391500;19;19922;-69
2023/10/16 11:36:34;;;;;;;3.78;0.93;;;;;;;12.06;86.38;102322.72;7388080;19;20156;-69
2023/10/16 11:39:06;;;;;;;4.20;0.77;;;;;;;12.31;85.75;102318.44;7394681;19;20453;-69
2023/10/16 11:41:36;;;;;;;;;;;;;;;12.40;77.13;102316.66;7394056;19;20367;-68
2023/10/16 11:44:13;;;;;;;5.05;0.80;;;;;;;12.60;80.66;102315.50;7390573;19;19990;-69
2023/10/16 11:46:49;;;;;;;4.88;0.60;;;;;;;12.70;76.97;102314.44;7389269;19;19923;-69
2023/10/16 11:49:29;;;;;;;3.83;0.60;;;;;;;12.83;79.31;102311.31;7390381;19;19929;-69
2023/10/16 11:52:08;;;;;;;4.18;0.82;;;;;;;12.99;78.77;102311.44;7390727;19;19994;-69
2023/10/16 11:54:40;;;;;;;2.72;1.10;;;;;;;13.18;78.73;102314.00;7391489;19;19931;-68
2023/10/16 11:57:13;;;;;;;1.95;0.50;;;;;;;13.36;78.68;102313.94;7391576;19;19925;-69
2023/10/16 11:59:41;;;;;;;4.50;1.40;;;;;;;13.50;76.76;102307.09;7389903;19;19926;-69
2023/10/16 12:02:16;;;;;;;3.17;0.55;;;;;;;13.56;73.90;102303.72;7392117;19;19941;-69
2023/10/16 12:04:49;;;;;;;2.65;0.40;;;;;;;13.52;73.64;102305.06;7386802;19;19933;-69
2023/10/16 12:07:18;;;;;;;2.40;0.50;;;;;;;13.45;75.67;102309.44;7389999;19;19927;-69
2023/10/16 12:09:51;;;;;;;0.85;0.30;;;;;;;13.42;71.16;102307.88;7390828;19;19922;-69
2023/10/16 12:12:24;;;;;;;;;;;;;;;13.32;69.83;102311.72;7393125;19;20424;-69
2023/10/16 12:14:53;;;;;;;3.42;1.20;;;;;;;13.41;73.25;102308.91;7387668;19;19926;-69
2023/10/16 12:17:27;;;;;;;2.75;0.82;;;;;;;13.48;73.21;102307.25;7390893;19;20410;-69
2023/10/16 12:19:59;;;;;;;0.52;0.40;;;;;;;13.42;71.46;102315.13;7392133;19;20010;-69
2023/10/16 12:22:27;;;;;;;4.00;1.00;;;;;;;13.28;75.19;102316.59;7390590;19;19919;-70
2023/10/16 12:24:56;;;;;;;4.05;0.77;;;;;;;13.10;76.14;102313.94;7389388;19;19922;-69
2023/10/16 12:27:25;;;;;;;8.25;3.40;;;;;;;13.04;76.55;102314.53;7390489;19;19926;-69
2023/10/16 12:29:53;;;;;;;5.30;1.80;;;;;;;12.90;76.61;102316.97;7389055;19;20362;-69
2023/10/16 12:32:23;;;;;;;4.90;2.60;;;;;;;12.79;76.71;102315.34;7388701;19;19954;-69
2023/10/16 12:34:54;;;;;;;4.85;1.08;;;;;;;12.78;75.62;102313.63;7387373;19;19923;-69
2023/10/16 12:37:25;;;;;;;2.97;1.00;;;;;;;12.88;74.87;102317.13;7393253;19;19927;-68
2023/10/16 12:39:55;;;;;;;1.20;0.90;;;;;;;12.98;75.39;102320.59;7388908;19;19926;-68
2023/10/16 12:42:24;;;;;;;5.22;0.90;;;;;;;13.05;75.65;102309.97;7387947;19;19961;-68
2023/10/16 12:44:54;;;;;;;2.55;0.50;;;;;;;13.09;74.80;102311.34;7389177;19;19926;-68
2023/10/16 12:47:22;;;;;;;2.70;0.43;;;;;;;13.10;73.20;102307.66;7391097;19;20287;-69
2023/10/16 12:49:53;;;;;;;4.95;0.68;;;;;;;13.10;74.29;102304.94;7390042;19;19922;-69
2023/10/16 12:52:21;;;;;;;2.67;0.88;;;;;;;13.06;73.39;102307.13;7389486;19;19926;-69
2023/10/16 12:54:52;;;;;;;5.18;1.20;;;;;;;12.99;74.07;102306.03;7388362;19;20345;-69
2023/10/16 12:57:21;;;;;;;2.97;0.60;;;;;;;12.95;73.90;102304.66;7385602;19;19923;-69
2023/10/16 12:59:50;;;;;;;4.32;0.55;;;;;;;12.92;74.38;102299.56;7388081;19;19978;-69
2023/10/16 13:02:25;;;;;;;3.63;0.75;;;;;;;12.92;74.47;102304.97;7393441;19;19915;-69
2023/10/16 13:04:55;;;;;;;1.60;0.77;;;;;;;12.93;75.14;102305.81;7390883;19;19927;-69
2023/10/16 13:07:26;;;;;;;6.43;0.70;;;;;;;12.93;74.77;102311.25;7387981;19;19931;-69
2023/10/16 13:09:58;;;;;;;;;;;;;;;12.78;72.42;102308.22;7390127;19;20026;-69
2023/10/16 13:12:26;;;;;;;2.25;0.50;;;;;;;12.84;73.05;102306.78;7390480;19;19922;-68
2023/10/16 13:14:58;;;;;;;2.13;0.60;;;;;;;12.85;73.61;102309.31;7395594;19;20314;-69